Time;durP1;ratioP1;P1;durP2;ratioP2;P2;SDS_P1;SDS_P2;PMS_P1;PMS_P2;Temp;Humidity;BMP_temperature;BMP_pressure;BME280_temperature;BME280_humidity;BME280_pressure;Samples;Min_cycle;Max_cycle;Signal;HPM_P1;HPM_P2
2023/05/19 00:00:23;;;;;;;;;;;;;;;11.95;63.69;99179.09;5002808;28;110818;-73
2023/05/19 00:02:51;;;;;;;;;;;;;;;11.97;64.57;99177.16;4990627;28;105983;-73
2023/05/19 00:05:19;;;;;;;;;;;;;;;11.50;65.46;99180.44;5005503;28;102574;-73
2023/05/19 00:07:48;;;;;;;;;;;;;;;11.28;66.42;99177.56;5011326;28;102644;-73
2023/05/19 00:10:16;;;;;;;;;;;;;;;11.29;66.57;99177.44;5014096;28;103304;-73
2023/05/19 00:12:44;;;;;;;;;;;;;;;11.26;65.62;99174.16;5011778;28;103586;-72
2023/05/19 00:15:14;;;;;;;;;;;;;;;11.39;65.82;99167.09;4986108;28;103350;-73
2023/05/19 00:17:42;;;;;;;;;;;;;;;11.45;65.78;99169.31;4992709;28;102880;-73
2023/05/19 00:20:11;;;;;;;;;;;;;;;11.44;65.78;99171.13;5007242;28;106086;-73
2023/05/19 00:22:39;;;;;;;;;;;;;;;11.38;65.81;99163.59;5010724;28;102755;-72
2023/05/19 00:25:07;;;;;;;;;;;;;;;11.57;65.41;99171.13;5009554;28;102682;-72
2023/05/19 00:27:34;;;;;;;;;;;;;;;11.42;65.61;99167.75;5006979;28;102749;-73
2023/05/19 00:30:02;;;;;;;;;;;;;;;11.42;65.75;99175.69;5000417;28;103287;-72
2023/05/19 00:32:31;;;;;;;;;;;;;;;11.60;65.43;99173.56;4992074;28;105991;-72
2023/05/19 00:34:59;;;;;;;;;;;;;;;11.56;65.41;99170.25;4998329;28;102605;-73
2023/05/19 00:37:27;;;;;;;;;;;;;;;11.77;65.00;99162.69;5002514;28;103995;-72
2023/05/19 00:39:58;;;;;;;;;;;;;;;11.69;65.42;99159.72;5000680;28;103276;-72
2023/05/19 00:42:26;;;;;;;;;;;;;;;11.85;64.82;99167.41;4988973;28;104400;-72
2023/05/19 00:44:54;;;;;;;;;;;;;;;11.95;64.21;99161.41;5005654;28;104025;-72
2023/05/19 00:47:22;;;;;;;;;;;;;;;11.72;64.61;99167.44;5005917;28;105412;-72
2023/05/19 00:49:51;;;;;;;;;;;;;;;11.81;64.57;99165.97;5009534;28;103822;-72
2023/05/19 00:52:18;;;;;;;;;;;;;;;11.72;64.38;99167.44;5011754;28;103136;-72
2023/05/19 00:54:46;;;;;;;;;;;;;;;11.93;64.01;99154.53;5009906;28;103032;-72
2023/05/19 00:57:14;;;;;;;;;;;;;;;11.87;63.91;99155.81;4984294;28;102924;-73
2023/05/19 00:59:42;;;;;;;;;;;;;;;11.99;63.95;99154.91;5010319;28;103269;-72
2023/05/19 01:02:09;;;;;;;;;;;;;;;11.94;64.10;99151.75;4988302;28;105344;-73
2023/05/19 01:04:38;;;;;;;;;;;;;;;11.97;64.06;99155.97;5011945;28;102646;-72
2023/05/19 01:07:07;;;;;;;;;;;;;;;12.06;63.83;99158.84;4999826;28;103907;-72
2023/05/19 01:09:35;;;;;;;;;;;;;;;12.15;63.79;99152.84;4984435;28;105579;-72
2023/05/19 01:12:02;;;;;;;;;;;;;;;12.26;63.66;99149.47;4986325;28;111940;-72
2023/05/19 01:14:30;;;;;;;;;;;;;;;12.35;62.88;99155.91;5000508;28;102779;-72
2023/05/19 01:17:04;;;;;;;;;;;;;;;12.47;62.37;99152.34;4996373;28;104619;-72
2023/05/19 01:19:45;;;;;;;;;;;;;;;12.38;64.21;99145.09;4990453;28;103269;-72
2023/05/19 01:22:22;;;;;;;;;;;;;;;12.35;64.24;99138.19;5008090;28;103614;-72
2023/05/19 01:25:05;;;;;;;;;;;;;;;12.03;65.46;99151.09;4996069;28;102661;-73
2023/05/19 01:27:42;;;;;;;;;;;;;;;12.23;65.09;99156.78;5000062;28;103093;-73
2023/05/19 01:30:18;;;;;;;;;;;;;;;12.40;63.99;99164.38;5009858;28;103841;-73
2023/05/19 01:32:47;;;;;;;;;;;;;;;12.40;63.05;99165.22;5010583;28;110694;-73
2023/05/19 01:35:16;;;;;;;;;;;;;;;12.54;63.39;99161.56;4970161;28;103143;-73
2023/05/19 01:37:44;;;;;;;;;;;;;;;12.34;65.51;99167.44;5008638;28;102669;-73
2023/05/19 01:40:12;;;;;;;;;;;;;;;12.37;64.80;99172.53;4987340;28;104313;-73
2023/05/19 01:42:41;;;;;;;;;;;;;;;12.44;64.38;99166.66;5007038;28;103547;-73
2023/05/19 01:45:10;;;;;;;;;;;;;;;12.31;64.44;99168.53;5008797;28;103815;-73
2023/05/19 01:47:41;;;;;;;;;;;;;;;12.25;64.99;99165.44;5012476;28;104140;-73
2023/05/19 01:50:09;;;;;;;;;;;;;;;12.18;65.19;99165.88;4994493;28;108091;-73
2023/05/19 01:52:37;;;;;;;;;;;;;;;11.83;66.50;99170.19;4982801;28;114497;-74
2023/05/19 01:55:05;;;;;;;;;;;;;;;11.60;66.97;99162.97;4995251;28;102687;-73
2023/05/19 01:57:36;;;;;;;;;;;;;;;11.75;66.35;99161.09;5010119;28;102761;-73
2023/05/19 02:00:10;;;;;;;;;;;;;;;11.76;66.37;99163.63;4993124;28;104557;-73
2023/05/19 02:02:53;;;;;;;;;;;;;;;11.65;66.52;99161.69;5006132;28;103107;-73
2023/05/19 02:05:28;;;;;;;;;;;;;;;11.67;66.70;99164.25;4981787;28;102815;-73
2023/05/19 02:08:01;;;;;;;;;;;;;;;11.60;67.01;99170.91;4999137;28;102644;-74
2023/05/19 02:10:30;;;;;;;;;;;;;;;11.53;66.70;99161.72;4984532;28;103448;-73
2023/05/19 02:13:01;;;;;;;;;;;;;;;11.63;66.93;99168.03;5011879;28;103728;-73
2023/05/19 02:15:32;;;;;;;;;;;;;;;11.69;66.91;99166.78;4996471;28;102690;-73
2023/05/19 02:18:03;;;;;;;;;;;;;;;11.70;66.38;99164.06;5000804;28;103182;-73
2023/05/19 02:20:31;;;;;;;;;;;;;;;11.86;65.81;99164.69;5008187;28;103188;-73
2023/05/19 02:22:59;;;;;;;;;;;;;;;11.96;65.74;99168.38;5001282;28;103376;-73
2023/05/19 02:25:27;;;;;;;;;;;;;;;11.96;66.04;99164.88;4986817;28;102666;-73
2023/05/19 02:27:54;;;;;;;;;;;;;;;12.08;65.07;99164.00;5010768;28;104164;-73
2023/05/19 02:30:22;;;;;;;;;;;;;;;11.93;65.96;99165.94;4997339;28;103459;-72
2023/05/19 02:32:50;;;;;;;;;;;;;;;12.02;65.88;99165.28;4996634;28;112769;-72
2023/05/19 02:35:19;;;;;;;;;;;;;;;12.12;65.66;99170.78;5007105;28;102674;-72
2023/05/19 02:37:47;;;;;;;;;;;;;;;12.34;64.67;99170.09;5008947;28;102622;-72
2023/05/19 02:40:15;;;;;;;;;;;;;;;12.45;64.38;99157.78;4992469;28;103316;-72
2023/05/19 02:42:42;;;;;;;;;;;;;;;12.51;63.77;99167.06;4999616;28;113333;-72
2023/05/19 02:45:10;;;;;;;;;;;;;;;12.56;64.17;99159.63;5011742;28;102864;-72
2023/05/19 02:47:40;;;;;;;;;;;;;;;12.59;63.46;99159.41;4992570;28;102881;-73
2023/05/19 02:50:08;;;;;;;;;;;;;;;12.57;64.30;99156.03;4990829;28;103304;-73
2023/05/19 02:52:37;;;;;;;;;;;;;;;12.60;64.76;99158.47;5009756;28;105858;-73
2023/05/19 02:55:08;;;;;;;;;;;;;;;12.55;64.58;99149.97;5010711;28;102676;-73
2023/05/19 02:57:36;;;;;;;;;;;;;;;12.40;65.32;99144.00;4999045;28;102838;-73
2023/05/19 03:00:04;;;;;;;;;;;;;;;12.50;64.63;99149.47;4995483;28;114754;-73
2023/05/19 03:02:32;;;;;;;;;;;;;;;12.12;65.77;99147.81;4995428;28;103275;-73
2023/05/19 03:05:02;;;;;;;;;;;;;;;12.36;65.01;99146.97;5013294;28;102624;-73
2023/05/19 03:07:30;;;;;;;;;;;;;;;12.39;65.61;99141.47;4990899;28;103062;-73
2023/05/19 03:10:02;;;;;;;;;;;;;;;12.24;65.92;99137.28;5003085;28;103680;-74
2023/05/19 03:12:30;;;;;;;;;;;;;;;12.28;66.33;99136.94;5004633;28;110683;-74
2023/05/19 03:14:58;;;;;;;;;;;;;;;12.27;66.00;99143.19;4994523;28;102704;-73
2023/05/19 03:17:26;;;;;;;;;;;;;;;12.16;66.00;99146.63;5010392;28;103100;-74
2023/05/19 03:19:54;;;;;;;;;;;;;;;12.28;65.40;99146.69;5008194;28;103541;-74
2023/05/19 03:22:22;;;;;;;;;;;;;;;12.23;66.97;99146.19;5004000;28;103088;-74
2023/05/19 03:24:52;;;;;;;;;;;;;;;12.12;67.78;99145.16;4998599;28;102610;-74
2023/05/19 03:27:21;;;;;;;;;;;;;;;12.08;67.82;99153.41;5006742;28;102629;-74
2023/05/19 03:29:49;;;;;;;;;;;;;;;12.21;68.05;99144.47;5009722;28;103156;-71
2023/05/19 03:32:17;;;;;;;;;;;;;;;11.74;69.64;99148.81;4989016;28;110331;-71
2023/05/19 03:34:45;;;;;;;;;;;;;;;11.80;68.80;99143.94;4972439;28;102819;-72
2023/05/19 03:37:15;;;;;;;;;;;;;;;11.84;68.90;99144.56;4990728;28;102730;-71
2023/05/19 03:39:43;;;;;;;;;;;;;;;11.99;68.24;99149.63;4981643;28;106254;-71
2023/05/19 03:42:13;;;;;;;;;;;;;;;11.83;70.25;99151.66;4987967;28;103312;-71
2023/05/19 03:44:42;;;;;;;;;;;;;;;11.86;70.86;99148.81;4984520;28;103091;-70
2023/05/19 03:47:09;;;;;;;;;;;;;;;11.74;71.05;99149.66;4987486;28;102670;-70
2023/05/19 03:49:56;;;;;;;;;;;;;;;11.76;71.13;99150.38;5002803;28;103419;-70
2023/05/19 03:52:53;;;;;;;;;;;;;;;11.48;72.48;99154.06;4990316;28;103206;-70
2023/05/19 03:55:30;;;;;;;;;;;;;;;11.05;74.41;99155.31;4991461;28;102740;-71
2023/05/19 03:57:58;;;;;;;;;;;;;;;11.37;72.47;99150.47;4982018;28;102817;-70
2023/05/19 04:00:27;;;;;;;;;;;;;;;11.25;72.99;99160.09;4988988;28;104359;-70
2023/05/19 04:02:54;;;;;;;;;;;;;;;11.52;72.22;99160.00;4987112;28;105780;-71
2023/05/19 04:05:22;;;;;;;;;;;;;;;11.44;72.62;99162.34;5007583;28;102626;-70
2023/05/19 04:07:50;;;;;;;;;;;;;;;11.49;72.31;99170.78;4993251;28;102802;-70
2023/05/19 04:10:20;;;;;;;;;;;;;;;11.40;72.27;99168.78;4994307;28;115419;-71
2023/05/19 04:12:48;;;;;;;;;;;;;;;11.61;71.34;99165.53;4995789;28;103268;-71
2023/05/19 04:15:16;;;;;;;;;;;;;;;11.71;70.88;99167.53;4975095;28;103337;-70
2023/05/19 04:17:45;;;;;;;;;;;;;;;11.72;71.07;99171.88;5006753;28;102907;-70
2023/05/19 04:20:13;;;;;;;;;;;;;;;11.65;71.38;99171.44;4993555;28;103388;-71
2023/05/19 04:22:41;;;;;;;;;;;;;;;11.80;70.71;99169.56;5005319;28;103239;-71
2023/05/19 04:25:09;;;;;;;;;;;;;;;11.72;70.28;99167.44;4992466;28;102594;-71
2023/05/19 04:27:38;;;;;;;;;;;;;;;11.79;70.87;99171.34;4991400;28;102605;-70
2023/05/19 04:30:08;;;;;;;;;;;;;;;11.79;68.85;99176.66;4984684;28;105872;-70
2023/05/19 04:32:38;;;;;;;;;;;;;;;11.89;69.24;99175.06;4997727;28;103079;-70
2023/05/19 04:35:08;;;;;;;;;;;;;;;11.96;68.97;99171.00;4995188;28;102629;-71
2023/05/19 04:37:37;;;;;;;;;;;;;;;11.66;69.50;99173.13;5001014;28;103752;-70
2023/05/19 04:40:09;;;;;;;;;;;;;;;11.27;70.25;99181.16;4999809;28;108358;-70
2023/05/19 04:42:40;;;;;;;;;;;;;;;11.36;70.05;99175.25;4996494;28;105305;-70
2023/05/19 04:45:11;;;;;;;;;;;;;;;11.24;70.22;99176.06;4986931;28;102594;-70
2023/05/19 04:47:41;;;;;;;;;;;;;;;11.45;70.34;99174.63;4999596;28;102645;-70
2023/05/19 04:50:11;;;;;;;;;;;;;;;11.14;70.94;99175.84;4985599;28;104609;-70
2023/05/19 04:52:44;;;;;;;;;;;;;;;11.23;71.19;99174.38;5011489;28;104147;-71
2023/05/19 04:55:12;;;;;;;;;;;;;;;11.01;71.46;99181.09;4989778;28;102699;-70
2023/05/19 04:57:41;;;;;;;;;;;;;;;11.17;71.56;99180.09;5003400;28;102625;-70
2023/05/19 05:00:12;;;;;;;;;;;;;;;11.24;71.05;99186.63;4987089;28;103862;-71
2023/05/19 05:02:52;;;;;;;;;;;;;;;11.38;71.08;99179.47;4987470;28;103329;-70
2023/05/19 05:05:22;;;;;;;;;;;;;;;11.79;69.42;99179.28;4992328;28;102631;-70
2023/05/19 05:07:52;;;;;;;;;;;;;;;11.80;69.80;99181.00;5001992;28;102813;-70
2023/05/19 05:10:21;;;;;;;;;;;;;;;11.25;68.99;99173.31;5005366;28;103519;-70
2023/05/19 05:12:49;;;;;;;;;;;;;;;11.79;69.37;99183.75;4992648;28;103181;-70
2023/05/19 05:15:17;;;;;;;;;;;;;;;11.70;68.23;99179.94;4996010;28;102628;-70
2023/05/19 05:17:48;;;;;;;;;;;;;;;12.12;67.82;99184.03;4989671;28;102748;-70
2023/05/19 05:20:18;;;;;;;;;;;;;;;12.29;66.17;99182.84;4996654;28;110528;-70
2023/05/19 05:22:47;;;;;;;;;;;;;;;11.70;68.42;99168.50;4984690;28;108059;-70
2023/05/19 05:25:16;;;;;;;;;;;;;;;12.00;67.74;99169.84;5004771;28;102606;-70
2023/05/19 05:27:44;;;;;;;;;;;;;;;12.13;67.57;99168.03;5005578;28;102639;-71
2023/05/19 05:30:47;;;;;;;;;;;;;;;12.23;67.95;99168.22;5079417;27;102680;-57
2023/05/19 05:33:20;;;;;;;;;;;;;;;12.72;67.02;99166.34;5053750;27;104114;-58
2023/05/19 05:35:49;;;;;;;;;;;;;;;12.45;66.36;99175.47;5065058;27;103281;-57
2023/05/19 05:38:17;;;;;;;;;;;;;;;12.36;65.65;99174.31;5045605;27;104463;-57
2023/05/19 05:40:44;;;;;;;;;;;;;;;12.33;66.06;99174.53;5060866;27;102665;-57
2023/05/19 05:43:13;;;;;;;;;;;;;;;12.40;66.95;99181.13;5073562;27;102819;-57
2023/05/19 05:45:48;;;;;;;;;;;;;;;12.25;66.91;99176.06;5057212;27;105460;-57
2023/05/19 05:48:16;;;;;;;;;;;;;;;12.38;66.87;99176.88;5043838;27;103162;-57
2023/05/19 05:50:45;;;;;;;;;;;;;;;12.34;66.58;99178.03;5043644;27;102958;-56
2023/05/19 05:53:18;;;;;;;;;;;;;;;12.65;66.93;99174.88;5067208;27;103290;-57
2023/05/19 05:55:48;;;;;;;;;;;;;;;12.72;66.63;99176.09;5045387;27;104545;-56
2023/05/19 05:58:17;;;;;;;;;;;;;;;12.74;67.22;99176.84;5060312;27;105315;-57
2023/05/19 06:00:47;;;;;;;;;;;;;;;12.47;66.99;99186.78;5058045;27;102723;-57
2023/05/19 06:03:17;;;;;;;;;;;;;;;12.09;68.26;99178.97;5056325;27;102837;-57
2023/05/19 06:05:45;;;;;;;;;;;;;;;12.15;68.47;99179.34;5057226;27;103286;-57
2023/05/19 06:08:13;;;;;;;;;;;;;;;12.66;67.77;99173.88;5028075;27;104615;-56
2023/05/19 06:10:42;;;;;;;;;;;;;;;12.45;67.90;99178.97;5040664;27;102671;-56
2023/05/19 06:13:15;;;;;;;;;;;;;;;12.50;66.93;99175.97;5038813;27;102720;-57
2023/05/19 06:15:42;;;;;;;;;;;;;;;12.14;68.09;99179.47;5054542;27;106963;-56
2023/05/19 06:18:18;;;;;;;;;;;;;;;12.61;67.82;99173.38;5036232;27;103402;-57
2023/05/19 06:20:47;;;;;;;;;;;;;;;13.02;67.42;99170.34;5052034;27;102777;-57
2023/05/19 06:23:16;;;;;;;;;;;;;;;13.07;66.78;99170.84;5048196;27;103222;-57
2023/05/19 06:25:44;;;;;;;;;;;;;;;12.94;66.56;99162.94;5045631;27;104718;-57
2023/05/19 06:32:14;;;;;;;;;;;;;;;13.31;66.54;99169.88;5058226;27;103088;-57
2023/05/19 06:34:43;;;;;;;;;;;;;;;13.54;66.39;99167.25;5045686;27;104017;-57
2023/05/19 06:37:13;;;;;;;;;;;;;;;13.67;65.12;99162.72;5034243;27;103101;-58
2023/05/19 06:39:41;;;;;;;;;;;;;;;13.35;66.02;99160.72;5046452;27;104236;-57
2023/05/19 06:42:09;;;;;;;;;;;;;;;13.92;64.76;99155.34;5024070;27;102721;-57
2023/05/19 06:44:56;;;;;;;;;;;;;;;13.54;64.30;99161.94;5044600;27;102801;-60
2023/05/19 06:47:26;;;;;;;;;;;;;;;13.41;64.75;99166.50;5028467;27;103432;-57
2023/05/19 06:49:55;;;;;;;;;;;;;;;14.11;64.97;99161.88;5021076;27;103159;-58
2023/05/19 06:52:27;;;;;;;;;;;;;;;14.04;63.40;99153.53;5015158;27;102922;-58
2023/05/19 06:54:58;;;;;;;;;;;;;;;14.45;63.23;99155.56;5033320;27;102978;-58
2023/05/19 06:57:26;;;;;;;;;;;;;;;14.13;63.59;99160.78;5026505;27;103839;-57
2023/05/19 06:59:54;;;;;;;;;;;;;;;13.84;64.39;99162.22;5039378;27;107603;-58
2023/05/19 07:02:23;;;;;;;;;;;;;;;14.19;64.27;99157.63;5042738;27;103887;-57
2023/05/19 07:04:52;;;;;;;;;;;;;;;14.50;62.60;99154.22;5011543;27;103836;-56
2023/05/19 07:07:23;;;;;;;;;;;;;;;14.76;63.26;99156.56;5039164;27;103414;-57
2023/05/19 07:09:51;;;;;;;;;;;;;;;14.62;61.73;99157.72;5044748;27;103191;-56
2023/05/19 07:12:19;;;;;;;;;;;;;;;14.29;61.80;99153.25;5030140;27;103093;-57
2023/05/19 07:14:46;;;;;;;;;;;;;;;15.20;60.92;99155.53;5029666;27;103243;-57
2023/05/19 07:17:17;;;;;;;;;;;;;;;15.36;58.25;99151.44;5022458;27;103345;-57
2023/05/19 07:19:45;;;;;;;;;;;;;;;14.70;60.72;99157.94;5028641;27;103047;-57
2023/05/19 07:22:15;;;;;;;;;;;;;;;15.26;60.12;99158.53;5040604;27;103305;-57
2023/05/19 07:24:44;;;;;;;;;;;;;;;14.61;60.93;99149.84;5050653;27;102891;-57
2023/05/19 07:27:12;;;;;;;;;;;;;;;15.19;60.56;99156.50;5048721;27;103327;-58
2023/05/19 07:29:39;;;;;;;;;;;;;;;15.52;57.56;99151.84;5048567;27;103811;-57
2023/05/19 07:32:07;;;;;;;;;;;;;;;15.43;57.32;99155.28;5046207;27;103012;-57
2023/05/19 07:34:35;;;;;;;;;;;;;;;14.75;59.48;99154.88;5045694;27;102801;-58
2023/05/19 07:37:04;;;;;;;;;;;;;;;14.45;60.80;99147.59;5036277;27;103798;-60
2023/05/19 07:39:31;;;;;;;;;;;;;;;14.66;59.75;99155.63;5053009;27;103112;-60
2023/05/19 07:42:01;;;;;;;;;;;;;;;14.88;58.60;99155.53;5049035;27;102635;-60
2023/05/19 07:44:30;;;;;;;;;;;;;;;15.19;59.10;99154.69;5048201;27;102648;-60
2023/05/19 07:46:58;;;;;;;;;;;;;;;14.67;59.91;99152.00;5051208;27;107498;-60
2023/05/19 07:49:25;;;;;;;;;;;;;;;14.74;59.96;99147.84;5031774;27;104275;-60
2023/05/19 07:51:55;;;;;;;;;;;;;;;14.80;59.73;99147.34;5040471;27;102805;-60
2023/05/19 07:54:23;;;;;;;;;;;;;;;15.09;59.18;99140.47;5052466;27;102670;-60
2023/05/19 07:56:51;;;;;;;;;;;;;;;15.27;58.69;99136.25;5047858;27;109008;-60
2023/05/19 07:59:20;;;;;;;;;;;;;;;15.04;59.46;99132.03;5027546;27;104693;-57
2023/05/19 08:01:48;;;;;;;;;;;;;;;15.50;60.46;99129.84;5033063;27;102639;-57
2023/05/19 08:04:19;;;;;;;;;;;;;;;15.43;60.34;99141.97;5044795;27;102721;-57
2023/05/19 08:06:47;;;;;;;;;;;;;;;15.43;58.88;99141.97;5051075;27;105981;-58
2023/05/19 08:09:15;;;;;;;;;;;;;;;15.59;58.41;99137.06;5008411;27;105881;-57
2023/05/19 08:11:43;;;;;;;;;;;;;;;15.42;57.86;99137.63;5049538;27;102894;-57
2023/05/19 08:14:11;;;;;;;;;;;;;;;15.36;59.24;99130.16;5050513;27;103211;-60
2023/05/19 08:16:44;;;;;;;;;;;;;;;14.60;58.90;99125.06;5044838;27;104257;-63
2023/05/19 08:19:14;;;;;;;;;;;;;;;14.89;59.54;99125.31;5034772;27;103471;-62
2023/05/19 08:21:43;;;;;;;;;;;;;;;14.74;59.11;99126.59;5043938;27;102580;-63
2023/05/19 08:24:11;;;;;;;;;;;;;;;14.80;60.38;99126.09;5045775;27;102700;-61
2023/05/19 08:26:39;;;;;;;;;;;;;;;14.85;60.05;99121.25;5049777;27;103961;-62
2023/05/19 08:29:08;;;;;;;;;;;;;;;14.29;60.32;99121.38;5030041;27;103101;-60
2023/05/19 08:31:36;;;;;;;;;;;;;;;14.65;60.45;99127.38;5045192;27;102660;-59
2023/05/19 08:34:05;;;;;;;;;;;;;;;15.00;59.61;99119.94;5042839;27;102856;-59
2023/05/19 08:36:34;;;;;;;;;;;;;;;15.17;57.96;99118.53;5051456;27;103279;-60
2023/05/19 08:39:02;;;;;;;;;;;;;;;15.28;58.78;99115.81;5042614;27;103258;-60
2023/05/19 08:41:30;;;;;;;;;;;;;;;15.15;58.83;99110.69;5048592;27;102905;-60
2023/05/19 08:43:58;;;;;;;;;;;;;;;15.09;58.39;99117.38;5040929;27;102875;-60
2023/05/19 08:46:26;;;;;;;;;;;;;;;15.54;58.27;99117.97;5042038;27;103281;-60
2023/05/19 08:48:58;;;;;;;;;;;;;;;16.02;56.29;99112.03;5045751;27;103359;-60
2023/05/19 08:51:33;;;;;;;;;;;;;;;15.23;58.95;99110.03;5038580;27;104325;-60
2023/05/19 08:54:07;;;;;;;;;;;;;;;15.50;60.43;99116.53;5037754;27;103153;-59
2023/05/19 08:56:35;;;;;;;;;;;;;;;15.87;57.45;99116.00;5042268;27;104348;-60
2023/05/19 08:59:27;;;;;;;;;;;;;;;15.25;58.92;99110.75;5047640;27;103216;-60
2023/05/19 09:01:55;;;;;;;;;;;;;;;15.16;58.35;99115.03;5050282;27;103914;-60
2023/05/19 09:04:26;;;;;;;;;;;;;;;15.14;58.33;99116.97;5039167;27;102645;-60
2023/05/19 09:07:01;;;;;;;;;;;;;;;15.41;60.83;99111.16;5042606;27;103232;-60
2023/05/19 09:09:29;;;;;;;;;;;;;;;14.67;58.94;99109.47;5028456;27;103152;-60
2023/05/19 09:11:58;;;;;;;;;;;;;;;15.43;58.86;99115.34;5049568;27;102675;-60
2023/05/19 09:17:07;;;;;;;;;;;;;;;15.58;59.29;99111.41;5045051;27;109385;-59
2023/05/19 09:19:35;;;;;;;;;;;;;;;16.09;57.01;99110.47;5044489;27;103203;-60
2023/05/19 09:22:05;;;;;;;;;;;;;;;16.18;57.83;99107.00;5045931;27;102946;-60
2023/05/19 09:24:33;;;;;;;;;;;;;;;15.46;59.88;99106.25;5048867;27;102755;-60
2023/05/19 09:27:01;;;;;;;;;;;;;;;15.26;60.94;99113.28;5048028;27;103244;-60
2023/05/19 09:29:29;;;;;;;;;;;;;;;14.98;58.69;99117.44;5016830;27;105950;-60
2023/05/19 09:31:59;;;;;;;;;;;;;;;14.99;59.68;99112.94;5051281;27;102944;-60
2023/05/19 09:34:27;;;;;;;;;;;;;;;15.84;58.03;99109.13;5044852;27;103244;-58
2023/05/19 09:36:56;;;;;;;;;;;;;;;15.51;57.99;99114.72;5008516;27;106040;-57
2023/05/19 09:39:27;;;;;;;;;;;;;;;15.38;57.74;99117.53;5042520;27;103828;-57
2023/05/19 09:41:58;;;;;;;;;;;;;;;15.69;56.50;99106.97;5038330;27;102807;-57
2023/05/19 09:44:28;;;;;;;;;;;;;;;15.74;56.66;99104.75;5040672;27;102636;-57
2023/05/19 09:46:56;;;;;;;;;;;;;;;15.54;57.35;99104.66;5042522;27;103358;-57
2023/05/19 09:49:26;;;;;;;;;;;;;;;15.61;55.65;99097.81;5042673;27;103137;-58
2023/05/19 09:51:54;;;;;;;;;;;;;;;16.06;56.13;99092.09;5036670;27;102750;-57
2023/05/19 09:54:27;;;;;;;;;;;;;;;16.07;56.90;99088.47;5022359;27;102733;-57
2023/05/19 09:56:58;;;;;;;;;;;;;;;16.01;59.10;99099.66;5037744;27;103807;-56
2023/05/19 09:59:27;;;;;;;;;;;;;;;16.36;57.47;99089.38;5044678;27;103302;-56
2023/05/19 10:02:00;;;;;;;;;;;;;;;16.32;56.50;99090.63;5042269;27;102744;-56
2023/05/19 10:04:30;;;;;;;;;;;;;;;16.56;55.21;99088.44;5008380;27;102754;-56
2023/05/19 10:06:59;;;;;;;;;;;;;;;16.11;58.15;99084.56;5042328;27;103464;-57
2023/05/19 10:09:29;;;;;;;;;;;;;;;15.87;57.12;99100.03;5036505;27;103154;-57
2023/05/19 10:11:57;;;;;;;;;;;;;;;16.06;57.59;99086.75;5046587;27;103130;-57
2023/05/19 10:14:26;;;;;;;;;;;;;;;16.24;57.04;99085.16;5041496;27;102897;-57
2023/05/19 10:16:54;;;;;;;;;;;;;;;16.09;57.90;99086.50;5039091;27;106322;-57
2023/05/19 10:19:25;;;;;;;;;;;;;;;16.56;56.62;99088.44;5048036;27;103104;-57
2023/05/19 10:21:53;;;;;;;;;;;;;;;16.00;56.13;99088.16;5043537;27;102827;-58
2023/05/19 10:24:21;;;;;;;;;;;;;;;15.92;55.73;99084.47;5026091;27;102746;-57
2023/05/19 10:26:55;;;;;;;;;;;;;;;15.57;56.23;99083.09;5041546;27;103280;-57
2023/05/19 10:29:28;;;;;;;;;;;;;;;15.89;57.01;99084.75;5044161;27;103556;-57
2023/05/19 10:31:57;;;;;;;;;;;;;;;16.15;57.67;99085.94;5045714;27;102751;-57
2023/05/19 10:34:36;;;;;;;;;;;;;;;15.76;58.25;99084.13;5050888;27;103203;-58
2023/05/19 10:37:10;;;;;;;;;;;;;;;16.27;57.40;99087.53;5045112;27;103081;-57
2023/05/19 10:39:41;;;;;;;;;;;;;;;16.53;55.13;99078.03;5050627;27;103026;-57
2023/05/19 10:42:15;;;;;;;;;;;;;;;16.63;55.03;99078.91;5014639;27;103073;-58
2023/05/19 10:44:53;;;;;;;;;;;;;;;17.10;54.69;99073.69;5041310;27;102629;-58
2023/05/19 10:47:23;;;;;;;;;;;;;;;17.42;53.57;99084.88;5048126;27;103820;-57
2023/05/19 10:49:52;;;;;;;;;;;;;;;16.88;54.70;99073.97;5051261;27;103797;-57
2023/05/19 10:52:21;;;;;;;;;;;;;;;17.01;56.18;99074.56;5051389;27;102782;-57
2023/05/19 10:54:50;;;;;;;;;;;;;;;16.46;54.84;99070.72;5053223;27;103197;-57
2023/05/19 10:57:19;;;;;;;;;;;;;;;16.56;56.23;99067.09;5045601;27;104416;-57
2023/05/19 10:59:50;;;;;;;;;;;;;;;16.83;55.29;99070.91;5047121;27;104298;-58
2023/05/19 11:02:37;;;;;;;;;;;;;;;16.75;55.62;99074.28;5024511;27;102870;-58
2023/05/19 11:05:09;;;;;;;;;;;;;;;16.36;57.20;99068.06;5052963;27;102851;-58
2023/05/19 11:07:37;;;;;;;;;;;;;;;15.71;56.88;99073.91;5027206;27;103256;-58
2023/05/19 11:10:08;;;;;;;;;;;;;;;15.53;57.59;99071.00;5051959;27;103228;-61
2023/05/19 11:12:45;;;;;;;;;;;;;;;16.75;55.87;99067.13;5032211;27;102728;-61
2023/05/19 11:15:14;;;;;;;;;;;;;;;17.06;53.40;99061.63;5029378;27;102679;-60
2023/05/19 11:17:47;;;;;;;;;;;;;;;16.72;54.59;99067.41;5048416;27;103450;-61
2023/05/19 11:20:25;;;;;;;;;;;;;;;16.53;54.37;99072.72;5051351;27;103591;-58
2023/05/19 11:23:01;;;;;;;;;;;;;;;16.41;54.73;99073.81;5042099;27;103042;-57
2023/05/19 11:25:41;;;;;;;;;;;;;;;16.33;56.64;99073.66;5051699;27;102894;-58
2023/05/19 11:28:10;;;;;;;;;;;;;;;17.24;53.97;99066.06;5042894;27;103983;-58
2023/05/19 11:30:39;;;;;;;;;;;;;;;17.86;54.36;99073.50;5041730;27;104297;-58
2023/05/19 11:33:07;;;;;;;;;;;;;;;16.95;55.52;99070.63;5046736;27;102818;-58
2023/05/19 11:35:36;;;;;;;;;;;;;;;16.38;57.96;99068.75;5041015;27;102701;-58
2023/05/19 11:38:05;;;;;;;;;;;;;;;16.17;57.89;99071.50;5020436;27;104818;-58
2023/05/19 11:40:33;;;;;;;;;;;;;;;16.34;57.04;99074.47;5041098;27;104288;-57
2023/05/19 11:43:03;;;;;;;;;;;;;;;15.68;57.63;99076.81;5045322;27;103198;-58
2023/05/19 11:45:32;;;;;;;;;;;;;;;16.19;57.60;99068.72;5044825;27;103132;-57
2023/05/19 11:48:02;;;;;;;;;;;;;;;16.23;57.99;99067.44;5043332;27;103809;-58
2023/05/19 11:50:30;;;;;;;;;;;;;;;16.21;57.44;99064.09;5043044;27;104383;-58
2023/05/19 11:53:00;;;;;;;;;;;;;;;16.29;57.22;99061.56;5029256;27;105300;-58
2023/05/19 11:55:28;;;;;;;;;;;;;;;16.86;55.75;99051.94;5043531;27;102967;-58
2023/05/19 11:57:58;;;;;;;;;;;;;;;16.74;55.00;99052.09;5045528;27;103222;-58
2023/05/19 12:00:29;;;;;;;;;;;;;;;17.08;53.55;99054.31;5039941;27;104733;-59
2023/05/19 12:02:59;;;;;;;;;;;;;;;16.45;55.21;99053.06;5034073;27;102664;-58
2023/05/19 12:05:28;;;;;;;;;;;;;;;17.23;55.13;99051.06;5042169;27;102739;-58
2023/05/19 12:07:56;;;;;;;;;;;;;;;17.39;55.02;99048.63;5046151;27;103332;-58
2023/05/19 12:10:24;;;;;;;;;;;;;;;17.07;53.99;99042.78;5045366;27;103093;-58
2023/05/19 12:12:52;;;;;;;;;;;;;;;16.83;55.20;99045.06;5045758;27;102698;-58
2023/05/19 12:15:20;;;;;;;;;;;;;;;16.42;54.75;99040.81;5032959;27;102643;-60
2023/05/19 12:17:56;;;;;;;;;;;;;;;16.72;55.29;99051.41;5028105;27;110178;-61
2023/05/19 12:20:26;;;;;;;;;;;;;;;16.89;55.00;99052.50;5048205;27;103149;-60
2023/05/19 12:22:55;;;;;;;;;;;;;;;17.17;56.56;99048.09;5034096;27;102938;-60
2023/05/19 12:25:23;;;;;;;;;;;;;;;16.68;56.17;99058.00;5015557;27;103913;-60
2023/05/19 12:27:54;;;;;;;;;;;;;;;16.28;55.81;99049.22;5020056;27;103436;-60
2023/05/19 12:30:25;;;;;;;;;;;;;;;16.41;55.88;99049.81;5044058;27;103541;-60
2023/05/19 12:32:55;;;;;;;;;;;;;;;16.73;57.46;99052.22;5029155;27;103348;-61
2023/05/19 12:35:28;;;;;;;;;;;;;;;17.02;55.81;99049.53;5023443;27;102718;-59
2023/05/19 12:37:56;;;;;;;;;;;;;;;17.02;56.98;99054.88;5045539;27;103540;-59
2023/05/19 12:40:25;;;;;;;;;;;;;;;16.41;56.64;99054.28;5054197;27;102757;-60
2023/05/19 12:42:57;;;;;;;;;;;;;;;16.34;55.86;99054.00;5044532;27;102783;-57
2023/05/19 12:45:27;;;;;;;;;;;;;;;16.42;57.33;99056.81;5048526;27;102731;-58
2023/05/19 12:47:55;;;;;;;;;;;;;;;16.64;56.28;99055.75;5031258;27;106002;-58
2023/05/19 12:50:31;;;;;;;;;;;;;;;16.60;56.01;99057.84;5027581;27;105223;-58
2023/05/19 12:52:59;;;;;;;;;;;;;;;16.54;57.44;99055.75;5049319;27;102670;-60
2023/05/19 12:55:28;;;;;;;;;;;;;;;16.74;56.99;99046.75;5049330;27;102738;-60